Time;durP1;ratioP1;P1;durP2;ratioP2;P2;SDS_P1;SDS_P2;PMS_P1;PMS_P2;Temp;Humidity;BMP_temperature;BMP_pressure;BME280_temperature;BME280_humidity;BME280_pressure;Samples;Min_cycle;Max_cycle;Signal;HPM_P1;HPM_P2
2023/03/24 00:00:38;;;;;;;;;;;;;;;;;;5097171;28;1288;-72
2023/03/24 00:03:03;;;;;;;;;;;;;;;;;;5114013;28;868;-72
2023/03/24 00:05:29;;;;;;;;;;;;;;;;;;5115253;28;982;-72
2023/03/24 00:07:54;;;;;;;;;;;;;;;;;;5113759;28;1276;-72
2023/03/24 00:10:21;;;;;;;;;;;;;;;;;;5115068;28;887;-72
2023/03/24 00:12:47;;;;;;;;;;;;;;;;;;5097190;28;1304;-72
2023/03/24 00:15:15;;;;;;;;;;;;;;;;;;5114561;28;1972;-73
2023/03/24 00:17:40;;;;;;;;;;;;;;;;;;5115831;27;875;-72
2023/03/24 00:20:12;;;;;;;;;;;;;;;;;;5115173;28;1064;-71
2023/03/24 00:22:41;;;;;;;;;;;;;;;;;;5113693;28;1292;-72
2023/03/24 00:25:07;;;;;;;;;;;;;;;;;;5114007;28;1201;-72
2023/03/24 00:27:35;;;;;;;;;;;;;;;;;;5115821;28;824;-72
2023/03/24 00:30:03;;;;;;;;;;;;;;;;;;5096876;28;1419;-72
2023/03/24 00:32:29;;;;;;;;;;;;;;;;;;5116126;28;977;-72
2023/03/24 00:34:54;;;;;;;;;;;;;;;;;;5113692;28;1963;-72
2023/03/24 00:37:19;;;;;;;;;;;;;;;;;;5112024;28;1250;-72
2023/03/24 00:39:45;;;;;;;;;;;;;;;;;;5100669;28;1191;-72
2023/03/24 00:42:12;;;;;;;;;;;;;;;;;;5106322;28;1225;-72
2023/03/24 00:44:37;;;;;;;;;;;;;;;;;;5111838;28;1239;-72
2023/03/24 00:47:03;;;;;;;;;;;;;;;;;;5113883;28;1289;-72
2023/03/24 00:49:47;;;;;;;;;;;;;;;;;;5113896;28;1338;-72
2023/03/24 00:52:19;;;;;;;;;;;;;;;;;;5114014;28;1253;-72
2023/03/24 00:54:46;;;;;;;;;;;;;;;;;;5114910;28;1970;-72
2023/03/24 00:57:13;;;;;;;;;;;;;;;;;;5113277;28;1229;-71
2023/03/24 00:59:47;;;;;;;;;;;;;;;;;;5113373;28;1253;-72
2023/03/24 01:02:13;;;;;;;;;;;;;;;;;;5112513;28;1771;-72
2023/03/24 01:04:39;;;;;;;;;;;;;;;;;;5113104;28;1316;-72
2023/03/24 01:07:06;;;;;;;;;;;;;;;;;;5112283;28;1305;-72
2023/03/24 01:09:32;;;;;;;;;;;;;;;;;;5113086;28;1249;-72
2023/03/24 01:11:58;;;;;;;;;;;;;;;;;;5113021;28;1297;-72
2023/03/24 01:14:24;;;;;;;;;;;;;;;;;;5095021;28;2264;-72
2023/03/24 01:16:49;;;;;;;;;;;;;;;;;;5113123;28;1073;-72
2023/03/24 01:19:15;;;;;;;;;;;;;;;;;;5112356;28;1173;-72
2023/03/24 01:21:41;;;;;;;;;;;;;;;;;;5112729;28;876;-72
2023/03/24 01:24:07;;;;;;;;;;;;;;;;;;5112453;28;1299;-72
2023/03/24 01:26:32;;;;;;;;;;;;;;;;;;5114050;28;855;-72
2023/03/24 01:28:57;;;;;;;;;;;;;;;;;;5113779;28;872;-72
2023/03/24 01:31:26;;;;;;;;;;;;;;;;;;5113330;28;837;-72
2023/03/24 01:33:51;;;;;;;;;;;;;;;;;;5112296;28;1913;-72
2023/03/24 01:36:16;;;;;;;;;;;;;;;;;;5112192;28;1247;-72
2023/03/24 01:38:42;;;;;;;;;;;;;;;;;;5095261;28;1202;-72
2023/03/24 01:41:07;;;;;;;;;;;;;;;;;;5111972;28;1018;-72
2023/03/24 01:43:33;;;;;;;;;;;;;;;;;;5112800;28;1148;-72
2023/03/24 01:46:15;;;;;;;;;;;;;;;;;;5112300;28;1276;-72
2023/03/24 01:49:01;;;;;;;;;;;;;;;;;;5112057;28;1153;-72
2023/03/24 01:51:26;;;;;;;;;;;;;;;;;;5112171;28;1289;-72
2023/03/24 01:53:58;;;;;;;;;;;;;;;;;;5111880;28;1909;-72
2023/03/24 01:56:24;;;;;;;;;;;;;;;;;;5111700;28;1292;-72
2023/03/24 01:58:54;;;;;;;;;;;;;;;;;;5112381;28;1288;-72
2023/03/24 02:01:20;;;;;;;;;;;;;;;;;;5111946;28;1264;-72
2023/03/24 02:03:47;;;;;;;;;;;;;;;;;;5112520;28;1409;-72
2023/03/24 02:06:14;;;;;;;;;;;;;;;;;;5113352;28;1003;-72
2023/03/24 02:08:45;;;;;;;;;;;;;;;;;;5113798;28;833;-72
2023/03/24 02:11:11;;;;;;;;;;;;;;;;;;5113636;28;902;-72
2023/03/24 02:13:39;;;;;;;;;;;;;;;;;;5096140;28;1968;-72
2023/03/24 02:16:23;;;;;;;;;;;;;;;;;;5114148;28;789;-71
2023/03/24 02:18:48;;;;;;;;;;;;;;;;;;5112147;28;1371;-72
2023/03/24 02:21:32;;;;;;;;;;;;;;;;;;5112067;28;1216;-72
2023/03/24 02:24:12;;;;;;;;;;;;;;;;;;5113349;28;989;-72
2023/03/24 02:26:56;;;;;;;;;;;;;;;;;;5113468;28;872;-72
2023/03/24 02:29:41;;;;;;;;;;;;;;;;;;5112682;28;886;-72
2023/03/24 02:32:25;;;;;;;;;;;;;;;;;;5112783;28;926;-72
2023/03/24 02:35:09;;;;;;;;;;;;;;;;;;5110653;28;1980;-73
2023/03/24 02:37:35;;;;;;;;;;;;;;;;;;5111295;28;1411;-72
2023/03/24 02:40:07;;;;;;;;;;;;;;;;;;5111268;28;1197;-72
2023/03/24 02:42:53;;;;;;;;;;;;;;;;;;5111418;28;1198;-72
2023/03/24 02:45:21;;;;;;;;;;;;;;;;;;5111847;28;907;-72
2023/03/24 02:48:02;;;;;;;;;;;;;;;;;;5111475;28;1272;-72
2023/03/24 02:50:27;;;;;;;;;;;;;;;;;;5111250;28;1299;-72
2023/03/24 02:53:11;;;;;;;;;;;;;;;;;;5112915;28;958;-72
2023/03/24 02:55:44;;;;;;;;;;;;;;;;;;5111286;28;1914;-72
2023/03/24 02:58:32;;;;;;;;;;;;;;;;;;5111369;28;1293;-72
2023/03/24 03:01:01;;;;;;;;;;;;;;;;;;5112681;28;1305;-72
2023/03/24 03:03:33;;;;;;;;;;;;;;;;;;5110784;28;1438;-72
2023/03/24 03:06:02;;;;;;;;;;;;;;;;;;5111610;28;1292;-72
2023/03/24 03:08:29;;;;;;;;;;;;;;;;;;5112174;28;928;-72
2023/03/24 03:10:56;;;;;;;;;;;;;;;;;;5112602;28;887;-72
2023/03/24 03:13:24;;;;;;;;;;;;;;;;;;5112337;28;1149;-73
2023/03/24 03:15:52;;;;;;;;;;;;;;;;;;5110702;28;1913;-72
2023/03/24 03:18:42;;;;;;;;;;;;;;;;;;5111750;28;820;-72
2023/03/24 03:21:13;;;;;;;;;;;;;;;;;;5106930;28;1038;-73
2023/03/24 03:23:41;;;;;;;;;;;;;;;;;;5112155;28;931;-72
2023/03/24 03:26:11;;;;;;;;;;;;;;;;;;5110939;28;1234;-73
2023/03/24 03:28:38;;;;;;;;;;;;;;;;;;5112374;28;903;-72
2023/03/24 03:31:13;;;;;;;;;;;;;;;;;;5112778;28;887;-72
2023/03/24 03:33:45;;;;;;;;;;;;;;;;;;5110671;28;1949;-72
2023/03/24 03:36:25;;;;;;;;;;;;;;;;;;5111052;28;1234;-72
2023/03/24 03:38:58;;;;;;;;;;;;;;;;;;5112536;28;915;-72
2023/03/24 03:41:23;;;;;;;;;;;;;;;;;;5111209;28;1221;-72
2023/03/24 03:43:49;;;;;;;;;;;;;;;;;;5111595;28;1077;-72
2023/03/24 03:46:15;;;;;;;;;;;;;;;;;;5111473;28;1348;-72
2023/03/24 03:48:41;;;;;;;;;;;;;;;;;;5112800;28;773;-72
2023/03/24 03:51:08;;;;;;;;;;;;;;;;;;5094668;28;1245;-72
2023/03/24 03:53:46;;;;;;;;;;;;;;;;;;5111587;28;1146;-72
2023/03/24 03:56:12;;;;;;;;;;;;;;;;;;5112076;28;977;-72
2023/03/24 03:58:38;;;;;;;;;;;;;;;;;;5114257;28;923;-72
2023/03/24 04:01:05;;;;;;;;;;;;;;;;;;5097592;28;1304;-72
2023/03/24 04:03:33;;;;;;;;;;;;;;;;;;5115844;28;891;-72
2023/03/24 04:06:07;;;;;;;;;;;;;;;;;;5115706;28;864;-72
2023/03/24 04:08:44;;;;;;;;;;;;;;;;;;5116053;28;874;-72
2023/03/24 04:11:33;;;;;;;;;;;;;;;;;;5115534;28;847;-71
2023/03/24 04:14:01;;;;;;;;;;;;;;;;;;5115189;28;1901;-72
2023/03/24 04:16:35;;;;;;;;;;;;;;;;;;5113759;28;1253;-72
2023/03/24 04:19:10;;;;;;;;;;;;;;;;;;5114049;28;1209;-72
2023/03/24 04:21:37;;;;;;;;;;;;;;;;;;5113997;28;1166;-72
2023/03/24 04:24:05;;;;;;;;;;;;;;;;;;5115385;28;895;-72
2023/03/24 04:26:40;;;;;;;;;;;;;;;;;;5115508;28;816;-72
2023/03/24 04:29:11;;;;;;;;;;;;;;;;;;5115118;28;852;-72
2023/03/24 04:31:40;;;;;;;;;;;;;;;;;;5113536;28;1319;-72
2023/03/24 04:34:19;;;;;;;;;;;;;;;;;;5096902;28;1961;-72
2023/03/24 04:37:01;;;;;;;;;;;;;;;;;;5113579;28;1454;-72
2023/03/24 04:39:28;;;;;;;;;;;;;;;;;;5114282;28;872;-72
2023/03/24 04:41:55;;;;;;;;;;;;;;;;;;5113207;28;1185;-72
2023/03/24 04:44:21;;;;;;;;;;;;;;;;;;5113149;28;1372;-72
2023/03/24 04:46:49;;;;;;;;;;;;;;;;;;5113593;28;884;-72
2023/03/24 04:49:14;;;;;;;;;;;;;;;;;;5113094;28;1190;-72
2023/03/24 04:51:40;;;;;;;;;;;;;;;;;;5114410;28;899;-72
2023/03/24 04:54:05;;;;;;;;;;;;;;;;;;5113045;28;1989;-72
2023/03/24 04:56:38;;;;;;;;;;;;;;;;;;5113379;28;967;-72
2023/03/24 04:59:04;;;;;;;;;;;;;;;;;;5113349;28;1185;-72
2023/03/24 05:01:29;;;;;;;;;;;;;;;;;;5095923;28;1289;-72
2023/03/24 05:03:58;;;;;;;;;;;;;;;;;;5114921;28;884;-72
2023/03/24 05:06:24;;;;;;;;;;;;;;;;;;5112471;28;1446;-73
2023/03/24 05:08:51;;;;;;;;;;;;;;;;;;5112654;28;1308;-72
2023/03/24 05:11:17;;;;;;;;;;;;;;;;;;5112612;28;1189;-72
2023/03/24 05:13:43;;;;;;;;;;;;;;;;;;5114138;28;1964;-72
2023/03/24 05:16:08;;;;;;;;;;;;;;;;;;5112854;28;1283;-72
2023/03/24 05:18:34;;;;;;;;;;;;;;;;;;5115200;28;887;-72
2023/03/24 05:20:59;;;;;;;;;;;;;;;;;;5114357;28;848;-72
2023/03/24 05:23:24;;;;;;;;;;;;;;;;;;5114845;28;958;-72
2023/03/24 05:25:50;;;;;;;;;;;;;;;;;;5113746;28;1185;-72
2023/03/24 05:28:15;;;;;;;;;;;;;;;;;;5113047;28;1193;-72
2023/03/24 05:30:40;;;;;;;;;;;;;;;;;;5095979;28;1192;-72
2023/03/24 05:33:06;;;;;;;;;;;;;;;;;;5113325;28;1145;-73
2023/03/24 05:35:32;;;;;;;;;;;;;;;;;;5112528;28;1905;-72
2023/03/24 05:37:57;;;;;;;;;;;;;;;;;;5112815;28;1328;-72
2023/03/24 05:40:22;;;;;;;;;;;;;;;;;;5095636;28;1301;-72
2023/03/24 05:42:48;;;;;;;;;;;;;;;;;;5113827;28;845;-72
2023/03/24 05:45:14;;;;;;;;;;;;;;;;;;5113777;28;923;-72
2023/03/24 05:47:39;;;;;;;;;;;;;;;;;;5113632;28;800;-72
2023/03/24 05:50:23;;;;;;;;;;;;;;;;;;5112519;28;1209;-73
2023/03/24 05:52:49;;;;;;;;;;;;;;;;;;5113290;28;927;-72
2023/03/24 05:55:15;;;;;;;;;;;;;;;;;;5112869;28;1890;-72
2023/03/24 05:57:42;;;;;;;;;;;;;;;;;;5112150;28;1070;-73
2023/03/24 06:00:09;;;;;;;;;;;;;;;;;;5111918;28;1197;-73
2023/03/24 06:02:34;;;;;;;;;;;;;;;;;;5112067;28;1206;-72
2023/03/24 06:05:00;;;;;;;;;;;;;;;;;;5094741;28;1348;-72
2023/03/24 06:07:25;;;;;;;;;;;;;;;;;;5111770;28;1178;-72
2023/03/24 06:09:51;;;;;;;;;;;;;;;;;;5113129;28;982;-72
2023/03/24 06:12:17;;;;;;;;;;;;;;;;;;5113339;28;836;-72
2023/03/24 06:14:42;;;;;;;;;;;;;;;;;;5112908;28;1902;-73
2023/03/24 06:17:08;;;;;;;;;;;;;;;;;;5113389;28;848;-72
2023/03/24 06:19:33;;;;;;;;;;;;;;;;;;5094298;28;1426;-73
2023/03/24 06:22:01;;;;;;;;;;;;;;;;;;5101398;28;1167;-73
2023/03/24 06:24:27;;;;;;;;;;;;;;;;;;5097985;28;1147;-73
2023/03/24 06:26:57;;;;;;;;;;;;;;;;;;5100741;28;1206;-72
2023/03/24 06:29:23;;;;;;;;;;;;;;;;;;5099810;28;1321;-72
2023/03/24 06:31:48;;;;;;;;;;;;;;;;;;5083113;28;1147;-73
2023/03/24 06:34:13;;;;;;;;;;;;;;;;;;5099833;28;1976;-72
2023/03/24 06:36:39;;;;;;;;;;;;;;;;;;5100630;28;1298;-72
2023/03/24 06:39:05;;;;;;;;;;;;;;;;;;5102872;28;1186;-73
2023/03/24 06:41:31;;;;;;;;;;;;;;;;;;5107029;28;1182;-72
2023/03/24 06:43:56;;;;;;;;;;;;;;;;;;5107631;28;1162;-72
2023/03/24 06:46:22;;;;;;;;;;;;;;;;;;5108680;28;927;-72
2023/03/24 06:48:47;;;;;;;;;;;;;;;;;;5107508;28;1046;-73
2023/03/24 06:51:13;;;;;;;;;;;;;;;;;;5101701;28;860;-73
2023/03/24 06:53:40;;;;;;;;;;;;;;;;;;5100608;28;1157;-73
2023/03/24 06:56:05;;;;;;;;;;;;;;;;;;5101254;28;1990;-72
2023/03/24 06:58:31;;;;;;;;;;;;;;;;;;5100914;28;1245;-74
2023/03/24 07:00:56;;;;;;;;;;;;;;;;;;5083001;28;1211;-73
2023/03/24 07:03:22;;;;;;;;;;;;;;;;;;5105504;28;1159;-74
2023/03/24 07:05:47;;;;;;;;;;;;;;;;;;5087338;28;1194;-73
2023/03/24 07:08:12;;;;;;;;;;;;;;;;;;5105801;28;876;-73
2023/03/24 07:10:41;;;;;;;;;;;;;;;;;;5087215;28;1189;-75
2023/03/24 07:13:07;;;;;;;;;;;;;;;;;;5108291;28;877;-74
2023/03/24 07:15:33;;;;;;;;;;;;;;;;;;5107158;28;1945;-73
2023/03/24 07:17:58;;;;;;;;;;;;;;;;;;5097449;28;1213;-73
2023/03/24 07:20:24;;;;;;;;;;;;;;;;;;5094168;28;924;-74
2023/03/24 07:22:49;;;;;;;;;;;;;;;;;;5093805;28;833;-74
2023/03/24 07:25:19;;;;;;;;;;;;;;;;;;5091925;28;1178;-74
2023/03/24 07:27:44;;;;;;;;;;;;;;;;;;5091754;28;1162;-74
2023/03/24 07:30:10;;;;;;;;;;;;;;;;;;5091411;28;1048;-74
2023/03/24 07:32:39;;;;;;;;;;;;;;;;;;5091898;28;1166;-74
2023/03/24 07:35:09;;;;;;;;;;;;;;;;;;5095188;28;1972;-74
2023/03/24 07:37:35;;;;;;;;;;;;;;;;;;5095570;28;1178;-74
2023/03/24 07:40:01;;;;;;;;;;;;;;;;;;5095439;28;1410;-74
2023/03/24 07:42:26;;;;;;;;;;;;;;;;;;5095044;28;864;-74
2023/03/24 07:44:51;;;;;;;;;;;;;;;;;;5094752;28;777;-73
2023/03/24 07:47:17;;;;;;;;;;;;;;;;;;5077506;28;1095;-73
2023/03/24 07:49:42;;;;;;;;;;;;;;;;;;5095110;28;1221;-73
2023/03/24 07:52:07;;;;;;;;;;;;;;;;;;5095440;28;943;-74
2023/03/24 07:54:33;;;;;;;;;;;;;;;;;;5094786;28;1902;-74
2023/03/24 07:56:59;;;;;;;;;;;;;;;;;;5095893;28;911;-71
2023/03/24 07:59:24;;;;;;;;;;;;;;;;;;5094328;28;1471;-71
2023/03/24 08:01:50;;;;;;;;;;;;;;;;;;5095217;28;852;-71
2023/03/24 08:04:15;;;;;;;;;;;;;;;;;;5095313;28;859;-71
2023/03/24 08:06:44;;;;;;;;;;;;;;;;;;5076802;28;1445;-70
2023/03/24 08:09:10;;;;;;;;;;;;;;;;;;5093943;28;1233;-71
2023/03/24 08:11:36;;;;;;;;;;;;;;;;;;5094894;28;806;-71
2023/03/24 08:14:01;;;;;;;;;;;;;;;;;;5094107;28;1902;-71
2023/03/24 08:16:27;;;;;;;;;;;;;;;;;;5094788;28;895;-71
2023/03/24 08:18:52;;;;;;;;;;;;;;;;;;5094661;28;883;-71
2023/03/24 08:21:17;;;;;;;;;;;;;;;;;;5093683;28;872;-70
2023/03/24 08:23:43;;;;;;;;;;;;;;;;;;5093499;28;1221;-70
2023/03/24 08:26:09;;;;;;;;;;;;;;;;;;5094369;28;762;-71
2023/03/24 08:28:35;;;;;;;;;;;;;;;;;;5093570;28;1178;-71
2023/03/24 08:31:00;;;;;;;;;;;;;;;;;;5127360;27;1145;-71
2023/03/24 08:33:25;;;;;;;;;;;;;;;;;;5093078;28;1111;-71
2023/03/24 08:35:56;;;;;;;;;;;;;;;;;;5094831;28;1913;-70
2023/03/24 08:38:22;;;;;;;;;;;;;;;;;;5099336;28;1120;-73
2023/03/24 08:40:47;;;;;;;;;;;;;;;;;;5106508;28;1160;-73
2023/03/24 08:43:13;;;;;;;;;;;;;;;;;;5097522;28;1258;-74
2023/03/24 08:45:39;;;;;;;;;;;;;;;;;;5105480;28;1203;-75
2023/03/24 08:48:05;;;;;;;;;;;;;;;;;;5113769;28;1280;-75
2023/03/24 08:50:36;;;;;;;;;;;;;;;;;;5115361;27;820;-75
2023/03/24 08:53:02;;;;;;;;;;;;;;;;;;5113815;28;1296;-75
2023/03/24 08:55:28;;;;;;;;;;;;;;;;;;5110530;28;1918;-74
2023/03/24 08:57:53;;;;;;;;;;;;;;;;;;5106219;28;1180;-75
2023/03/24 09:00:19;;;;;;;;;;;;;;;;;;5102598;28;1254;-75
2023/03/24 09:02:45;;;;;;;;;;;;;;;;;;5106829;28;1199;-75
2023/03/24 09:05:11;;;;;;;;;;;;;;;;;;5109850;28;1163;-75
2023/03/24 09:07:37;;;;;;;;;;;;;;;;;;5111227;28;1104;-74
2023/03/24 09:10:04;;;;;;;;;;;;;;;;;;5114897;28;986;-75
2023/03/24 09:12:29;;;;;;;;;;;;;;;;;;5113100;28;1339;-75
2023/03/24 09:14:54;;;;;;;;;;;;;;;;;;5114914;28;1971;-75
2023/03/24 09:17:20;;;;;;;;;;;;;;;;;;5095804;28;1293;-75
2023/03/24 09:19:46;;;;;;;;;;;;;;;;;;5095862;28;1198;-75
2023/03/24 09:22:11;;;;;;;;;;;;;;;;;;5113565;28;812;-74
2023/03/24 09:24:36;;;;;;;;;;;;;;;;;;5112717;28;1311;-75
2023/03/24 09:27:02;;;;;;;;;;;;;;;;;;5113602;28;876;-75
2023/03/24 09:29:28;;;;;;;;;;;;;;;;;;5095698;28;1297;-74
2023/03/24 09:31:54;;;;;;;;;;;;;;;;;;5095788;28;1186;-74
2023/03/24 09:34:20;;;;;;;;;;;;;;;;;;5113789;28;1902;-75
2023/03/24 09:36:46;;;;;;;;;;;;;;;;;;5112984;28;1091;-75
2023/03/24 09:39:11;;;;;;;;;;;;;;;;;;5113126;28;856;-74
2023/03/24 09:41:36;;;;;;;;;;;;;;;;;;5113469;28;836;-75
2023/03/24 09:44:11;;;;;;;;;;;;;;;;;;5114114;28;810;-75
2023/03/24 09:47:09;;;;;;;;;;;;;;;;;;5112530;28;1301;-72
2023/03/24 09:49:37;;;;;;;;;;;;;;;;;;5078341;28;1181;-72
2023/03/24 09:52:06;;;;;;;;;;;;;;;;;;5111931;28;1237;-72
2023/03/24 09:54:51;;;;;;;;;;;;;;;;;;5113301;28;1906;-72
2023/03/24 09:57:32;;;;;;;;;;;;;;;;;;5112545;28;1049;-72
2023/03/24 09:59:58;;;;;;;;;;;;;;;;;;5113305;28;919;-72
2023/03/24 10:02:27;;;;;;;;;;;;;;;;;;5112175;28;1174;-72
2023/03/24 10:04:53;;;;;;;;;;;;;;;;;;5113660;28;836;-74
2023/03/24 10:07:31;;;;;;;;;;;;;;;;;;5114080;28;820;-74
2023/03/24 10:09:58;;;;;;;;;;;;;;;;;;5112820;28;1297;-74
2023/03/24 10:12:39;;;;;;;;;;;;;;;;;;5111889;28;1370;-74
2023/03/24 10:15:05;;;;;;;;;;;;;;;;;;5111951;28;1965;-74
2023/03/24 10:17:33;;;;;;;;;;;;;;;;;;5111601;28;1297;-74
2023/03/24 10:20:01;;;;;;;;;;;;;;;;;;5111575;28;1296;-72
2023/03/24 10:22:46;;;;;;;;;;;;;;;;;;5112072;28;1201;-73
2023/03/24 10:25:14;;;;;;;;;;;;;;;;;;5113114;28;828;-73
2023/03/24 10:27:46;;;;;;;;;;;;;;;;;;5111550;28;1181;-73
2023/03/24 10:30:16;;;;;;;;;;;;;;;;;;5111894;28;1288;-74
2023/03/24 10:32:42;;;;;;;;;;;;;;;;;;5113610;28;996;-75
2023/03/24 10:35:14;;;;;;;;;;;;;;;;;;5112790;28;1972;-74
2023/03/24 10:37:39;;;;;;;;;;;;;;;;;;5113651;28;852;-73
2023/03/24 10:40:12;;;;;;;;;;;;;;;;;;5111517;28;1221;-73
2023/03/24 10:42:38;;;;;;;;;;;;;;;;;;5111663;28;1241;-74
2023/03/24 10:45:03;;;;;;;;;;;;;;;;;;5094655;28;1336;-74
2023/03/24 10:47:29;;;;;;;;;;;;;;;;;;5113207;28;1033;-73
2023/03/24 10:49:59;;;;;;;;;;;;;;;;;;5111874;28;1169;-72
2023/03/24 10:52:25;;;;;;;;;;;;;;;;;;5112678;28;875;-72
2023/03/24 10:54:57;;;;;;;;;;;;;;;;;;5112793;28;1946;-71
2023/03/24 10:57:23;;;;;;;;;;;;;;;;;;5111331;28;1407;-71
2023/03/24 10:59:54;;;;;;;;;;;;;;;;;;5111487;28;1121;-71
2023/03/24 11:02:23;;;;;;;;;;;;;;;;;;5112388;28;935;-71
2023/03/24 11:04:57;;;;;;;;;;;;;;;;;;5111308;28;1157;-72
2023/03/24 11:07:28;;;;;;;;;;;;;;;;;;5112968;28;1182;-71
2023/03/24 11:09:56;;;;;;;;;;;;;;;;;;5115436;28;1347;-71
2023/03/24 11:12:24;;;;;;;;;;;;;;;;;;5116853;28;881;-71
2023/03/24 11:14:52;;;;;;;;;;;;;;;;;;5115294;28;1978;-71
2023/03/24 11:17:19;;;;;;;;;;;;;;;;;;5114772;28;1146;-71
2023/03/24 11:19:55;;;;;;;;;;;;;;;;;;5116724;27;816;-72
2023/03/24 11:22:21;;;;;;;;;;;;;;;;;;5117272;28;875;-72
2023/03/24 11:24:53;;;;;;;;;;;;;;;;;;5117268;28;888;-72
2023/03/24 11:27:19;;;;;;;;;;;;;;;;;;5115090;28;1355;-71
2023/03/24 11:29:48;;;;;;;;;;;;;;;;;;5116914;28;970;-71
2023/03/24 11:32:26;;;;;;;;;;;;;;;;;;5116825;28;836;-71
2023/03/24 11:35:01;;;;;;;;;;;;;;;;;;5114877;28;1906;-70
2023/03/24 11:37:28;;;;;;;;;;;;;;;;;;5115321;28;1415;-70
2023/03/24 11:40:15;;;;;;;;;;;;;;;;;;5116645;28;883;-70
2023/03/24 11:43:00;;;;;;;;;;;;;;;;;;5104699;28;1340;-72
2023/03/24 11:45:27;;;;;;;;;;;;;;;;;;5116540;28;844;-74
2023/03/24 11:47:57;;;;;;;;;;;;;;;;;;5115103;28;1266;-73
2023/03/24 11:50:26;;;;;;;;;;;;;;;;;;5114978;28;1121;-73
2023/03/24 11:53:10;;;;;;;;;;;;;;;;;;5116075;28;1076;-73
2023/03/24 11:55:40;;;;;;;;;;;;;;;;;;5115014;28;1910;-73
2023/03/24 11:58:15;;;;;;;;;;;;;;;;;;5116123;28;859;-74
2023/03/24 12:00:40;;;;;;;;;;;;;;;;;;5115959;28;840;-71
2023/03/24 12:03:14;;;;;;;;;;;;;;;;;;5115948;28;844;-71
2023/03/24 12:05:58;;;;;;;;;;;;;;;;;;5116241;28;835;-74
2023/03/24 12:08:37;;;;;;;;;;;;;;;;;;5114509;28;1315;-73
2023/03/24 12:11:26;;;;;;;;;;;;;;;;;;5114526;28;1177;-73
2023/03/24 12:13:51;;;;;;;;;;;;;;;;;;5109674;28;933;-74
2023/03/24 12:16:35;;;;;;;;;;;;;;;;;;5114401;28;1981;-74
2023/03/24 12:19:19;;;;;;;;;;;;;;;;;;5114869;28;1042;-74
2023/03/24 12:21:54;;;;;;;;;;;;;;;;;;5114717;28;1221;-73
2023/03/24 12:24:19;;;;;;;;;;;;;;;;;;5114091;28;1237;-73
2023/03/24 12:26:45;;;;;;;;;;;;;;;;;;5115411;28;832;-73
2023/03/24 12:29:11;;;;;;;;;;;;;;;;;;5115439;28;888;-73
2023/03/24 12:31:45;;;;;;;;;;;;;;;;;;5115507;28;987;-73
2023/03/24 12:34:17;;;;;;;;;;;;;;;;;;5113542;28;1905;-73
2023/03/24 12:36:53;;;;;;;;;;;;;;;;;;5113852;28;1178;-73
2023/03/24 12:39:34;;;;;;;;;;;;;;;;;;5113453;28;1170;-74
2023/03/24 12:42:08;;;;;;;;;;;;;;;;;;5114927;28;851;-74
2023/03/24 12:44:52;;;;;;;;;;;;;;;;;;5114229;28;1157;-74
2023/03/24 12:47:18;;;;;;;;;;;;;;;;;;5114192;28;1324;-71
2023/03/24 12:49:58;;;;;;;;;;;;;;;;;;5114902;28;645;-71
2023/03/24 12:52:35;;;;;;;;;;;;;;;;;;5114355;28;1096;-71
2023/03/24 12:55:07;;;;;;;;;;;;;;;;;;5115421;28;1976;-71
2023/03/24 12:57:38;;;;;;;;;;;;;;;;;;5115278;28;961;-71
2023/03/24 13:00:25;;;;;;;;;;;;;;;;;;5114565;28;951;-71
2023/03/24 13:02:50;;;;;;;;;;;;;;;;;;5114437;28;1197;-71
2023/03/24 13:05:21;;;;;;;;;;;;;;;;;;5113635;28;1399;-71
2023/03/24 13:07:52;;;;;;;;;;;;;;;;;;5114854;28;805;-72
2023/03/24 13:10:24;;;;;;;;;;;;;;;;;;5114316;28;868;-71
2023/03/24 13:13:02;;;;;;;;;;;;;;;;;;5114980;27;836;-71
2023/03/24 13:15:33;;;;;;;;;;;;;;;;;;5113033;28;1898;-71
2023/03/24 13:18:07;;;;;;;;;;;;;;;;;;5115159;28;911;-71
2023/03/24 13:20:39;;;;;;;;;;;;;;;;;;5113823;28;1291;-73
2023/03/24 13:23:24;;;;;;;;;;;;;;;;;;5113956;28;1280;-74
2023/03/24 13:25:58;;;;;;;;;;;;;;;;;;5102639;28;1246;-74
2023/03/24 13:28:28;;;;;;;;;;;;;;;;;;5113504;28;1295;-74
2023/03/24 13:30:54;;;;;;;;;;;;;;;;;;5113037;28;1215;-74
2023/03/24 13:33:23;;;;;;;;;;;;;;;;;;5112620;28;1201;-74
2023/03/24 13:36:07;;;;;;;;;;;;;;;;;;5112716;28;1901;-74
2023/03/24 13:38:37;;;;;;;;;;;;;;;;;;5113017;28;1426;-74
2023/03/24 13:41:04;;;;;;;;;;;;;;;;;;5114868;28;895;-73
2023/03/24 13:43:30;;;;;;;;;;;;;;;;;;5112444;28;1125;-74
2023/03/24 13:46:00;;;;;;;;;;;;;;;;;;5113868;28;927;-74
2023/03/24 13:48:28;;;;;;;;;;;;;;;;;;5112852;28;1308;-75
2023/03/24 13:50:58;;;;;;;;;;;;;;;;;;5112942;28;1348;-74
2023/03/24 13:53:44;;;;;;;;;;;;;;;;;;5111516;28;1197;-74
2023/03/24 13:56:10;;;;;;;;;;;;;;;;;;5110013;28;1910;-74
2023/03/24 13:58:47;;;;;;;;;;;;;;;;;;5113712;28;820;-74
2023/03/24 14:01:18;;;;;;;;;;;;;;;;;;5113415;28;907;-74
2023/03/24 14:03:44;;;;;;;;;;;;;;;;;;5113521;27;793;-74
2023/03/24 14:06:13;;;;;;;;;;;;;;;;;;5112347;28;844;-74
2023/03/24 14:08:51;;;;;;;;;;;;;;;;;;5112687;28;808;-74
2023/03/24 14:11:40;;;;;;;;;;;;;;;;;;5113575;28;856;-74
2023/03/24 14:14:11;;;;;;;;;;;;;;;;;;5112491;28;1913;-74
2023/03/24 14:16:39;;;;;;;;;;;;;;;;;;5112355;28;1285;-75
2023/03/24 14:19:17;;;;;;;;;;;;;;;;;;5112239;28;1166;-74
2023/03/24 14:21:43;;;;;;;;;;;;;;;;;;5113976;28;891;-74
2023/03/24 14:24:35;;;;;;;;;;;;;;;;;;5114102;28;907;-74
2023/03/24 14:27:21;;;;;;;;;;;;;;;;;;5111601;28;1104;-74
2023/03/24 14:29:49;;;;;;;;;;;;;;;;;;5112203;28;1182;-75
2023/03/24 14:32:17;;;;;;;;;;;;;;;;;;5113320;28;918;-74
2023/03/24 14:34:50;;;;;;;;;;;;;;;;;;5113032;28;1901;-75
2023/03/24 14:37:15;;;;;;;;;;;;;;;;;;5111399;28;1458;-75
2023/03/24 14:39:43;;;;;;;;;;;;;;;;;;5104636;28;1219;-74
2023/03/24 14:42:27;;;;;;;;;;;;;;;;;;5103059;28;1214;-74
2023/03/24 14:44:54;;;;;;;;;;;;;;;;;;5102562;28;1200;-75
2023/03/24 14:47:20;;;;;;;;;;;;;;;;;;5104477;28;1264;-75
2023/03/24 14:49:47;;;;;;;;;;;;;;;;;;5100840;28;1225;-75
2023/03/24 14:52:16;;;;;;;;;;;;;;;;;;5100481;28;1342;-75
2023/03/24 14:54:42;;;;;;;;;;;;;;;;;;5113903;28;1910;-75
2023/03/24 14:57:15;;;;;;;;;;;;;;;;;;5114155;28;902;-75
2023/03/24 14:59:43;;;;;;;;;;;;;;;;;;5114160;28;903;-75
2023/03/24 15:02:27;;;;;;;;;;;;;;;;;;5114643;28;911;-75
2023/03/24 15:05:11;;;;;;;;;;;;;;;;;;5115027;28;911;-73
2023/03/24 15:07:40;;;;;;;;;;;;;;;;;;5113563;28;1305;-74
2023/03/24 15:10:06;;;;;;;;;;;;;;;;;;5114733;28;950;-75
2023/03/24 15:12:32;;;;;;;;;;;;;;;;;;5113650;28;1319;-76
2023/03/24 15:14:57;;;;;;;;;;;;;;;;;;5114527;28;1913;-80
2023/03/24 15:17:23;;;;;;;;;;;;;;;;;;5113868;28;915;-76
2023/03/24 15:19:53;;;;;;;;;;;;;;;;;;5113237;28;1320;-77
2023/03/24 15:22:19;;;;;;;;;;;;;;;;;;5113189;28;1000;-75
2023/03/24 15:24:48;;;;;;;;;;;;;;;;;;5111938;28;1067;-78
2023/03/24 15:27:19;;;;;;;;;;;;;;;;;;5111956;28;1292;-78
2023/03/24 15:29:45;;;;;;;;;;;;;;;;;;5114369;28;1244;-82
2023/03/24 15:32:21;;;;;;;;;;;;;;;;;;5098104;28;1404;-83
2023/03/24 15:34:50;;;;;;;;;;;;;;;;;;5113848;28;1918;-78
2023/03/24 15:37:24;;;;;;;;;;;;;;;;;;5112012;28;1262;-82
2023/03/24 15:39:50;;;;;;;;;;;;;;;;;;5112131;28;1246;-79
2023/03/24 15:42:18;;;;;;;;;;;;;;;;;;5111961;28;1197;-75
2023/03/24 15:44:43;;;;;;;;;;;;;;;;;;5111046;28;1201;-78
2023/03/24 15:47:28;;;;;;;;;;;;;;;;;;5111404;28;1264;-78
2023/03/24 15:49:58;;;;;;;;;;;;;;;;;;5111478;28;1197;-78
2023/03/24 15:52:30;;;;;;;;;;;;;;;;;;5111582;28;1281;-79
2023/03/24 15:55:00;;;;;;;;;;;;;;;;;;5113802;28;1980;-78
2023/03/24 15:57:26;;;;;;;;;;;;;;;;;;5114774;28;1284;-78
2023/03/24 15:59:58;;;;;;;;;;;;;;;;;;5114878;28;1198;-79
2023/03/24 16:02:24;;;;;;;;;;;;;;;;;;5114847;28;1257;-79
2023/03/24 16:04:50;;;;;;;;;;;;;;;;;;5114777;28;1507;-79
2023/03/24 16:07:34;;;;;;;;;;;;;;;;;;5098267;28;1091;-79
2023/03/24 16:10:04;;;;;;;;;;;;;;;;;;5116010;28;1328;-79
2023/03/24 16:12:36;;;;;;;;;;;;;;;;;;5114975;28;1308;-78
2023/03/24 16:15:04;;;;;;;;;;;;;;;;;;5114012;28;1914;-78
2023/03/24 16:17:30;;;;;;;;;;;;;;;;;;5091837;28;1203;-78
2023/03/24 16:19:56;;;;;;;;;;;;;;;;;;5102898;28;1210;-79
2023/03/24 16:22:24;;;;;;;;;;;;;;;;;;5094624;28;1238;-79
2023/03/24 16:24:50;;;;;;;;;;;;;;;;;;5077584;28;1222;-79
2023/03/24 16:27:15;;;;;;;;;;;;;;;;;;5095823;28;816;-78
2023/03/24 16:29:42;;;;;;;;;;;;;;;;;;5095018;28;1396;-78
2023/03/24 16:32:07;;;;;;;;;;;;;;;;;;5084834;28;1185;-78
2023/03/24 16:34:32;;;;;;;;;;;;;;;;;;5083448;28;1914;-79
2023/03/24 16:36:58;;;;;;;;;;;;;;;;;;5097551;28;1223;-78
2023/03/24 16:39:24;;;;;;;;;;;;;;;;;;5077654;28;1301;-79
2023/03/24 16:41:50;;;;;;;;;;;;;;;;;;5095632;28;1338;-78
2023/03/24 16:44:18;;;;;;;;;;;;;;;;;;5095668;28;1280;-78
2023/03/24 16:46:45;;;;;;;;;;;;;;;;;;5097859;28;610;-77
2023/03/24 16:49:14;;;;;;;;;;;;;;;;;;5096531;28;1284;-78
2023/03/24 16:51:40;;;;;;;;;;;;;;;;;;5094902;28;1289;-77
2023/03/24 16:54:06;;;;;;;;;;;;;;;;;;5097360;28;863;-76
2023/03/24 16:56:32;;;;;;;;;;;;;;;;;;5079110;28;1387;-78
2023/03/24 16:58:58;;;;;;;;;;;;;;;;;;5095733;28;1079;-77
2023/03/24 17:01:34;;;;;;;;;;;;;;;;;;5095538;28;1277;-77
2023/03/24 17:03:59;;;;;;;;;;;;;;;;;;5095354;28;1230;-77
2023/03/24 17:06:26;;;;;;;;;;;;;;;;;;5097315;28;868;-80
2023/03/24 17:08:51;;;;;;;;;;;;;;;;;;5095617;28;1185;-78
2023/03/24 17:11:19;;;;;;;;;;;;;;;;;;5079716;28;1202;-78
2023/03/24 17:13:44;;;;;;;;;;;;;;;;;;5096330;28;1280;-78
2023/03/24 17:16:10;;;;;;;;;;;;;;;;;;5078912;28;1878;-78
2023/03/24 17:18:38;;;;;;;;;;;;;;;;;;5097516;28;1177;-78
2023/03/24 17:21:06;;;;;;;;;;;;;;;;;;5093565;28;1210;-76
2023/03/24 17:23:33;;;;;;;;;;;;;;;;;;5108133;28;1151;-76